createdAt,value
2023-03-02T00:01:49.122Z,2.41
2023-03-02T00:04:23.765Z,2.38
2023-03-02T00:06:59.702Z,2.37
2023-03-02T00:09:33.604Z,2.31
2023-03-02T00:12:05.110Z,2.28
2023-03-02T00:14:35.547Z,2.28
2023-03-02T00:17:05.801Z,2.31
2023-03-02T00:19:36.613Z,2.26
2023-03-02T00:22:08.203Z,2.22
2023-03-02T00:24:45.139Z,2.17
2023-03-02T00:27:15.553Z,2.17
2023-03-02T00:29:46.087Z,2.15
2023-03-02T00:32:18.281Z,2.15
2023-03-02T00:34:48.615Z,2.12
2023-03-02T00:37:19.362Z,2.09
2023-03-02T00:39:55.040Z,2.01
2023-03-02T00:42:25.918Z,1.97
2023-03-02T00:44:59.396Z,1.86
2023-03-02T00:47:29.737Z,1.81
2023-03-02T00:50:00.112Z,1.81
2023-03-02T00:52:32.043Z,1.79
2023-03-02T00:55:05.258Z,1.74
2023-03-02T00:57:35.962Z,1.77
2023-03-02T01:00:08.685Z,1.71
2023-03-02T01:02:44.551Z,1.71
2023-03-02T01:05:19.428Z,1.67
2023-03-02T01:07:51.101Z,1.67
2023-03-02T01:10:24.199Z,1.65
2023-03-02T01:12:55.914Z,1.64
2023-03-02T01:15:26.657Z,1.59
2023-03-02T01:17:56.999Z,1.58
2023-03-02T01:20:27.314Z,1.55
2023-03-02T01:22:57.724Z,1.53
2023-03-02T01:25:30.883Z,1.47
2023-03-02T01:28:01.206Z,1.48
2023-03-02T01:30:34.388Z,1.46
2023-03-02T01:33:06.914Z,1.44
2023-03-02T01:35:37.360Z,1.40
2023-03-02T01:38:07.897Z,1.37
2023-03-02T01:44:46.756Z,1.29
2023-03-02T01:47:22.562Z,1.23
2023-03-02T01:50:21.041Z,1.19
2023-03-02T01:52:53.412Z,1.20
2023-03-02T01:55:29.193Z,1.29
2023-03-02T01:58:01.911Z,1.30
2023-03-02T02:00:44.054Z,1.29
2023-03-02T02:03:21.126Z,1.24
2023-03-02T02:06:03.498Z,1.20
2023-03-02T02:08:36.587Z,1.19
2023-03-02T02:11:07.455Z,1.18
2023-03-02T02:13:38.049Z,1.13
2023-03-02T02:16:14.057Z,1.10
2023-03-02T02:18:46.297Z,1.05
2023-03-02T02:21:17.621Z,1.07
2023-03-02T02:24:07.126Z,1.04
2023-03-02T02:26:44.881Z,1.05
2023-03-02T02:29:22.998Z,1.03
2023-03-02T02:32:01.998Z,1.06
2023-03-02T02:34:39.014Z,1.03
2023-03-02T02:37:14.175Z,1.09
2023-03-02T02:39:49.573Z,1.15
2023-03-02T02:42:30.603Z,1.22
2023-03-02T02:45:06.556Z,1.31
2023-03-02T02:47:37.545Z,1.38
2023-03-02T02:50:10.198Z,1.34
2023-03-02T02:52:41.773Z,1.31
2023-03-02T02:55:19.147Z,1.29
2023-03-02T02:57:57.588Z,1.29
2023-03-02T03:00:29.199Z,1.30
2023-03-02T03:03:08.088Z,1.32
2023-03-02T03:05:38.436Z,1.32
2023-03-02T03:08:14.052Z,1.24
2023-03-02T03:10:46.357Z,1.19
2023-03-02T03:13:20.264Z,1.16
2023-03-02T03:15:53.538Z,1.14
2023-03-02T03:18:26.868Z,1.11
2023-03-02T03:20:57.358Z,1.11
2023-03-02T03:23:30.701Z,1.07
2023-03-02T03:26:01.215Z,1.04
2023-03-02T03:28:37.150Z,1.00
2023-03-02T03:31:08.316Z,0.97
2023-03-02T03:33:38.853Z,0.93
2023-03-02T03:36:12.938Z,0.89
2023-03-02T03:38:43.421Z,0.87
2023-03-02T03:41:14.308Z,0.85
2023-03-02T03:43:47.680Z,0.87
2023-03-02T03:46:20.401Z,0.85
2023-03-02T03:48:51.326Z,0.84
2023-03-02T03:51:22.128Z,0.77
2023-03-02T03:54:00.386Z,0.73
2023-03-02T03:56:39.181Z,0.73
2023-03-02T03:59:14.768Z,0.68
2023-03-02T04:01:54.087Z,0.73
2023-03-02T04:04:29.002Z,0.64
2023-03-02T04:06:59.979Z,0.59
2023-03-02T04:09:32.324Z,0.65
2023-03-02T04:12:03.109Z,0.65
2023-03-02T04:14:36.370Z,0.62
2023-03-02T04:17:07.956Z,0.57
2023-03-02T04:19:41.786Z,0.59
2023-03-02T04:22:13.244Z,0.57
2023-03-02T04:24:43.640Z,0.53
2023-03-02T04:27:14.421Z,0.50
2023-03-02T04:29:48.873Z,0.50
2023-03-02T04:32:19.242Z,0.50
2023-03-02T04:34:55.283Z,0.46
2023-03-02T04:37:26.009Z,0.49
2023-03-02T04:39:56.415Z,0.47
2023-03-02T04:42:26.726Z,0.46
2023-03-02T04:44:59.954Z,0.43
2023-03-02T04:47:30.330Z,0.36
2023-03-02T04:50:00.652Z,0.35
2023-03-02T04:52:30.975Z,0.39
2023-03-02T04:55:01.343Z,0.40
2023-03-02T04:57:31.750Z,0.36
2023-03-02T05:00:06.148Z,0.35
2023-03-02T05:02:36.580Z,0.37
2023-03-02T05:05:07.847Z,0.35
2023-03-02T05:07:37.908Z,0.35
2023-03-02T05:10:09.899Z,0.25
2023-03-02T05:12:54.815Z,0.23
2023-03-02T05:15:30.601Z,0.26
2023-03-02T05:18:01.266Z,0.24
2023-03-02T05:20:32.660Z,0.18
2023-03-02T05:23:05.227Z,0.15
2023-03-02T05:25:39.332Z,0.19
2023-03-02T05:28:09.688Z,0.25
2023-03-02T05:30:42.612Z,0.16
2023-03-02T05:33:12.912Z,0.13
2023-03-02T05:35:43.686Z,0.13
2023-03-02T05:38:14.927Z,0.12
2023-03-02T05:40:45.395Z,0.12
2023-03-02T05:43:20.805Z,0.08
2023-03-02T05:45:55.388Z,0.08
2023-03-02T05:48:25.775Z,0.06
2023-03-02T05:50:56.110Z,0.03
2023-03-02T05:53:26.760Z,0.02
2023-03-02T05:55:57.732Z,-0.02
2023-03-02T05:58:28.108Z,0.02
2023-03-02T06:01:01.178Z,0.03
2023-03-02T06:03:31.864Z,0.09
2023-03-02T06:06:02.329Z,0.13
2023-03-02T06:08:32.612Z,0.14
2023-03-02T06:11:02.941Z,0.17
2023-03-02T06:13:33.217Z,0.20
2023-03-02T06:16:10.262Z,0.21
2023-03-02T06:18:41.707Z,0.30
2023-03-02T06:21:12.644Z,0.36
2023-03-02T06:23:43.190Z,0.41
2023-03-02T06:26:15.528Z,0.48
2023-03-02T06:28:52.542Z,0.54
2023-03-02T06:31:26.597Z,0.59
2023-03-02T06:33:56.977Z,0.67
2023-03-02T06:36:27.442Z,0.70
2023-03-02T06:38:58.134Z,0.74
2023-03-02T06:41:28.634Z,0.79
2023-03-02T06:43:59.018Z,0.83
2023-03-02T06:46:32.167Z,0.95
2023-03-02T06:49:02.765Z,1.10
2023-03-02T06:51:33.135Z,1.23
2023-03-02T06:54:03.634Z,1.36
2023-03-02T06:56:34.305Z,1.39
2023-03-02T06:59:04.962Z,1.48
2023-03-02T07:01:38.205Z,1.62
2023-03-02T07:04:08.712Z,1.75
2023-03-02T07:06:39.050Z,1.88
2023-03-02T07:09:09.298Z,2.06
2023-03-02T07:11:39.610Z,2.26
2023-03-02T07:14:10.180Z,2.39
2023-03-02T07:16:43.310Z,2.49
2023-03-02T07:19:15.854Z,2.66
2023-03-02T07:21:46.159Z,2.88
2023-03-02T07:24:16.440Z,3.10
2023-03-02T07:26:47.101Z,3.44
2023-03-02T07:29:17.550Z,3.74
2023-03-02T07:31:57.037Z,4.15
2023-03-02T07:34:27.903Z,4.60
2023-03-02T07:36:58.280Z,4.99
2023-03-02T07:39:28.746Z,5.34
2023-03-02T07:42:03.083Z,5.63
2023-03-02T07:44:33.787Z,5.88
2023-03-02T07:47:07.193Z,6.40
2023-03-02T07:49:38.193Z,6.80
2023-03-02T07:52:09.028Z,7.34
2023-03-02T07:54:39.882Z,7.82
2023-03-02T07:57:10.340Z,8.70
2023-03-02T07:59:40.728Z,8.95
2023-03-02T08:02:16.182Z,9.52
2023-03-02T08:04:46.878Z,10.41
2023-03-02T08:07:17.409Z,10.86
2023-03-02T08:09:48.138Z,11.52
2023-03-02T08:12:18.553Z,10.79
2023-03-02T08:14:50.961Z,11.16
2023-03-02T08:17:24.330Z,11.93
2023-03-02T08:19:54.750Z,12.43
2023-03-02T08:22:25.345Z,12.63
2023-03-02T08:24:55.728Z,13.08
2023-03-02T08:27:26.348Z,13.27
2023-03-02T08:29:57.199Z,13.86
2023-03-02T08:32:30.010Z,14.91
2023-03-02T08:35:00.415Z,16.12
2023-03-02T08:37:30.857Z,17.05
2023-03-02T08:40:01.194Z,17.35
2023-03-02T08:42:31.605Z,17.99
2023-03-02T08:45:01.987Z,18.85
2023-03-02T08:47:36.073Z,19.62
2023-03-02T08:50:06.739Z,20.22
2023-03-02T08:52:37.506Z,20.93
2023-03-02T08:55:10.442Z,21.78
2023-03-02T08:57:41.757Z,21.98
2023-03-02T09:00:16.342Z,22.20
2023-03-02T09:02:49.363Z,22.35
2023-03-02T09:05:20.005Z,22.28
2023-03-02T09:07:50.105Z,22.18
2023-03-02T09:10:20.984Z,22.52
2023-03-02T09:12:51.328Z,22.75
2023-03-02T09:15:21.828Z,22.73
2023-03-02T09:17:54.525Z,22.72
2023-03-02T09:20:25.032Z,22.66
2023-03-02T09:22:55.428Z,22.46
2023-03-02T09:25:25.790Z,22.70
2023-03-02T09:27:56.180Z,22.50
2023-03-02T09:30:26.631Z,22.66
2023-03-02T09:32:59.716Z,22.11
2023-03-02T09:35:30.190Z,22.13
2023-03-02T09:38:00.782Z,21.83
2023-03-02T09:40:31.241Z,21.15
2023-03-02T09:43:25.416Z,20.99
2023-03-02T09:46:09.846Z,20.99
2023-03-02T09:48:55.925Z,20.34
2023-03-02T09:51:42.952Z,20.39
2023-03-02T09:54:16.084Z,20.42
2023-03-02T09:56:50.560Z,20.23
2023-03-02T09:59:30.160Z,19.65
2023-03-02T10:02:07.179Z,19.77
2023-03-02T10:04:49.363Z,19.63
2023-03-02T10:07:27.423Z,19.67
2023-03-02T10:10:07.904Z,19.96
2023-03-02T10:12:55.374Z,19.89
2023-03-02T10:15:32.566Z,19.73
2023-03-02T10:18:11.048Z,18.99
2023-03-02T10:20:51.749Z,18.82
2023-03-02T10:23:45.904Z,18.74
2023-03-02T10:26:40.549Z,18.12
2023-03-02T10:29:46.807Z,18.02
2023-03-02T10:32:25.838Z,18.02
2023-03-02T10:34:57.453Z,18.34
2023-03-02T10:37:33.857Z,18.74
2023-03-02T10:40:04.289Z,18.88
2023-03-02T10:42:40.493Z,19.02
2023-03-02T10:45:28.602Z,19.25
2023-03-02T10:48:06.689Z,19.64
2023-03-02T10:50:37.906Z,19.51
2023-03-02T10:53:21.236Z,19.41
2023-03-02T10:55:54.611Z,19.43
2023-03-02T10:58:28.801Z,19.65
2023-03-02T11:01:02.155Z,19.95
2023-03-02T11:03:34.135Z,19.91
2023-03-02T11:06:22.608Z,19.97
2023-03-02T11:09:06.662Z,20.19
2023-03-02T11:11:38.163Z,20.20
2023-03-02T11:14:17.509Z,20.59
2023-03-02T11:16:48.057Z,20.84
2023-03-02T11:19:24.265Z,21.27
2023-03-02T11:22:03.539Z,21.81
2023-03-02T11:24:44.051Z,22.60
2023-03-02T11:27:22.834Z,23.35
2023-03-02T11:29:59.495Z,24.05
2023-03-02T11:32:39.604Z,24.74
2023-03-02T11:35:17.249Z,25.49
2023-03-02T11:37:53.481Z,26.09
2023-03-02T11:40:37.086Z,26.60
2023-03-02T11:43:07.689Z,27.06
2023-03-02T11:45:42.021Z,27.56
2023-03-02T11:48:22.492Z,27.88
2023-03-02T11:51:00.412Z,28.24
2023-03-02T11:53:36.494Z,28.63
2023-03-02T11:56:10.169Z,29.00
2023-03-02T11:58:41.804Z,29.36
2023-03-02T12:01:20.643Z,29.63
2023-03-02T12:03:51.034Z,29.75
2023-03-02T12:06:45.395Z,29.90
2023-03-02T12:09:39.580Z,29.96
2023-03-02T12:12:39.038Z,30.13
2023-03-02T12:15:37.897Z,30.32
2023-03-02T12:18:46.045Z,30.40
2023-03-02T12:21:20.394Z,30.76
2023-03-02T12:24:06.464Z,30.69
2023-03-02T12:26:40.387Z,30.65
2023-03-02T12:29:28.705Z,30.70
2023-03-02T12:32:00.312Z,30.92
2023-03-02T12:34:39.219Z,31.23
2023-03-02T12:37:21.977Z,31.41
2023-03-02T12:40:36.258Z,31.47
2023-03-02T12:43:24.098Z,31.44
2023-03-02T12:46:28.506Z,31.38
2023-03-02T12:49:17.270Z,31.41
2023-03-02T12:51:54.491Z,31.50
2023-03-02T12:54:28.355Z,31.71
2023-03-02T12:57:15.412Z,31.45
2023-03-02T12:59:47.270Z,31.61
2023-03-02T13:02:23.232Z,31.59
2023-03-02T13:04:58.719Z,31.69
2023-03-02T13:07:33.448Z,31.82
2023-03-02T13:10:07.743Z,31.83
2023-03-02T13:12:40.128Z,31.60
2023-03-02T13:15:19.158Z,31.51
2023-03-02T13:17:58.068Z,31.48
2023-03-02T13:20:31.789Z,31.39
2023-03-02T13:23:02.230Z,31.67
2023-03-02T13:25:34.634Z,31.49
2023-03-02T13:28:08.005Z,31.32
2023-03-02T13:30:47.893Z,31.43
2023-03-02T13:33:27.151Z,31.31
2023-03-02T13:35:58.127Z,31.35
2023-03-02T13:38:34.101Z,31.29
2023-03-02T13:41:04.596Z,31.11
2023-03-02T13:43:41.207Z,31.18
2023-03-02T13:46:31.857Z,31.25
2023-03-02T13:49:11.286Z,31.07
2023-03-02T13:51:43.629Z,30.88
2023-03-02T13:54:25.339Z,30.66
2023-03-02T13:56:56.469Z,30.42
2023-03-02T13:59:26.970Z,30.25
2023-03-02T14:01:57.623Z,29.83
2023-03-02T14:04:30.731Z,29.58
2023-03-02T14:07:01.205Z,29.27
2023-03-02T14:09:31.595Z,29.02
2023-03-02T14:12:02.196Z,28.29
2023-03-02T14:14:44.495Z,27.59
2023-03-02T14:17:18.325Z,27.25
2023-03-02T14:19:53.081Z,26.65
2023-03-02T14:22:23.967Z,26.17
2023-03-02T14:24:54.863Z,25.55
2023-03-02T14:27:30.253Z,24.85
2023-03-02T14:30:01.229Z,24.40
2023-03-02T14:32:31.993Z,24.22
2023-03-02T14:35:11.481Z,24.04
2023-03-02T14:37:46.801Z,23.87
2023-03-02T14:40:27.556Z,23.12
2023-03-02T14:42:58.021Z,22.42
2023-03-02T14:45:30.557Z,22.20
2023-03-02T14:48:03.596Z,21.96
2023-03-02T14:50:42.317Z,21.72
2023-03-02T14:53:19.067Z,21.40
2023-03-02T14:55:50.163Z,21.17
2023-03-02T14:58:32.811Z,21.00
2023-03-02T15:01:03.670Z,20.75
2023-03-02T15:03:34.259Z,20.70
2023-03-02T15:06:09.178Z,20.77
2023-03-02T15:08:39.683Z,20.63
2023-03-02T15:11:10.058Z,20.34
2023-03-02T15:13:40.520Z,19.83
2023-03-02T15:16:13.758Z,19.41
2023-03-02T15:18:44.227Z,19.15
2023-03-02T15:21:21.386Z,18.87
2023-03-02T15:23:52.296Z,18.69
2023-03-02T15:26:22.705Z,18.48
2023-03-02T15:28:54.234Z,18.28
2023-03-02T15:31:24.620Z,18.39
2023-03-02T15:33:55.364Z,18.68
2023-03-02T15:36:28.591Z,18.81
2023-03-02T15:38:59.017Z,18.72
2023-03-02T15:41:29.572Z,18.74
2023-03-02T15:43:59.758Z,18.24
2023-03-02T15:46:30.200Z,17.16
2023-03-02T15:49:00.578Z,16.07
2023-03-02T15:51:33.496Z,15.15
2023-03-02T15:54:03.920Z,14.55
2023-03-02T15:56:43.781Z,14.00
2023-03-02T15:59:14.958Z,13.51
2023-03-02T16:01:45.381Z,13.02
2023-03-02T16:04:15.836Z,12.71
2023-03-02T16:06:48.875Z,12.43
2023-03-02T16:09:19.309Z,12.19
2023-03-02T16:11:51.379Z,11.95
2023-03-02T16:14:22.614Z,11.61
2023-03-02T16:16:53.392Z,11.44
2023-03-02T16:19:23.957Z,11.25
2023-03-02T16:21:56.993Z,11.06
2023-03-02T16:24:28.155Z,10.93
2023-03-02T16:26:58.309Z,10.76
2023-03-02T16:29:31.953Z,10.59
2023-03-02T16:32:02.398Z,10.40
2023-03-02T16:34:32.938Z,10.33
2023-03-02T16:37:06.001Z,10.16
2023-03-02T16:39:37.008Z,10.00
2023-03-02T16:42:08.029Z,9.91
2023-03-02T16:44:38.648Z,9.77
2023-03-02T16:47:09.070Z,9.63
2023-03-02T16:49:39.561Z,9.55
2023-03-02T16:52:12.573Z,9.44
2023-03-02T16:54:42.922Z,9.36
2023-03-02T16:57:13.474Z,9.28
2023-03-02T16:59:43.946Z,9.16
2023-03-02T17:02:15.804Z,9.11
2023-03-02T17:04:46.288Z,8.93
2023-03-02T17:07:19.458Z,8.84
2023-03-02T17:09:49.775Z,8.74
2023-03-02T17:12:20.169Z,8.68
2023-03-02T17:14:50.583Z,8.56
2023-03-02T17:17:21.286Z,8.40
2023-03-02T17:19:51.771Z,8.37
2023-03-02T17:22:24.898Z,8.35
2023-03-02T17:24:55.207Z,8.28
2023-03-02T17:27:27.376Z,8.24
2023-03-02T17:29:58.001Z,8.18
2023-03-02T17:32:28.514Z,8.09
2023-03-02T17:34:58.950Z,8.02
2023-03-02T17:37:32.353Z,7.97
2023-03-02T17:40:02.753Z,7.84
2023-03-02T17:42:33.625Z,7.80
2023-03-02T17:45:04.145Z,7.75
2023-03-02T17:47:34.640Z,7.72
2023-03-02T17:50:07.577Z,7.64
2023-03-02T17:52:40.645Z,7.54
2023-03-02T17:55:13.818Z,7.48
2023-03-02T17:57:44.379Z,7.44
2023-03-02T18:00:19.771Z,7.35
2023-03-02T18:02:50.425Z,7.26
2023-03-02T18:05:22.319Z,7.21
2023-03-02T18:07:55.396Z,7.23
2023-03-02T18:10:25.874Z,7.08
2023-03-02T18:12:57.005Z,6.96
2023-03-02T18:15:29.174Z,6.84
2023-03-02T18:17:59.779Z,6.75
2023-03-02T18:20:30.292Z,6.68
2023-03-02T18:23:03.877Z,6.57
2023-03-02T18:25:34.446Z,6.46
2023-03-02T18:28:04.847Z,6.39
2023-03-02T18:30:35.365Z,6.30
2023-03-02T18:33:05.852Z,6.24
2023-03-02T18:35:38.236Z,6.18
2023-03-02T18:38:11.277Z,6.15
2023-03-02T18:40:41.643Z,6.10
2023-03-02T18:43:12.112Z,6.07
2023-03-02T18:45:42.516Z,6.01
2023-03-02T18:48:13.079Z,6.01
2023-03-02T18:50:43.810Z,5.96
2023-03-02T18:53:16.869Z,5.91
2023-03-02T18:55:47.288Z,5.83
2023-03-02T18:58:22.225Z,5.81
2023-03-02T19:00:52.567Z,5.76
2023-03-02T19:03:25.000Z,5.75
2023-03-02T19:05:58.056Z,5.71
2023-03-02T19:08:31.534Z,5.65
2023-03-02T19:11:01.924Z,5.57
2023-03-02T19:13:32.880Z,5.47
2023-03-02T19:16:04.385Z,5.36
2023-03-02T19:18:34.970Z,5.31
2023-03-02T19:21:05.437Z,5.23
2023-03-02T19:23:38.633Z,5.18
2023-03-02T19:26:08.916Z,5.15
2023-03-02T19:28:40.115Z,5.15
2023-03-02T19:31:11.572Z,5.09
2023-03-02T19:33:45.743Z,5.11
2023-03-02T19:36:16.416Z,5.08
2023-03-02T19:38:49.453Z,5.08
2023-03-02T19:41:22.560Z,5.11
2023-03-02T19:43:53.298Z,5.07
2023-03-02T19:46:23.772Z,5.02
2023-03-02T19:48:54.105Z,4.99
2023-03-02T19:51:24.473Z,4.95
2023-03-02T19:53:58.027Z,4.91
2023-03-02T19:56:33.033Z,4.86
2023-03-02T19:59:03.573Z,4.85
2023-03-02T20:01:34.118Z,4.83
2023-03-02T20:04:04.465Z,4.79
2023-03-02T20:06:37.545Z,4.74
2023-03-02T20:09:13.073Z,4.66
2023-03-02T20:11:43.770Z,4.60
2023-03-02T20:14:27.638Z,4.57
2023-03-02T20:17:03.581Z,4.57
2023-03-02T20:19:36.042Z,4.53
2023-03-02T20:22:07.024Z,4.52
2023-03-02T20:24:40.905Z,4.55
2023-03-02T20:27:12.618Z,4.48
2023-03-02T20:29:45.361Z,4.45
2023-03-02T20:32:17.117Z,4.42
2023-03-02T20:34:47.667Z,4.42
2023-03-02T20:37:18.781Z,4.40
2023-03-02T20:39:53.271Z,4.34
2023-03-02T20:42:24.012Z,4.31
2023-03-02T20:44:56.488Z,4.24
2023-03-02T20:47:26.871Z,4.19
2023-03-02T20:50:00.528Z,4.17
2023-03-02T20:52:31.182Z,4.12
2023-03-02T20:55:04.758Z,4.09
2023-03-02T20:57:35.284Z,4.08
2023-03-02T21:00:08.043Z,4.02
2023-03-02T21:02:38.621Z,4.03
2023-03-02T21:05:09.984Z,3.94
2023-03-02T21:07:40.311Z,3.88
2023-03-02T21:10:19.961Z,3.81
2023-03-02T21:12:51.271Z,3.82
2023-03-02T21:15:23.939Z,3.77
2023-03-02T21:17:54.751Z,3.75
2023-03-02T21:20:26.148Z,3.75
2023-03-02T21:22:56.217Z,3.75
2023-03-02T21:25:30.965Z,3.72
2023-03-02T21:28:02.033Z,3.70
2023-03-02T21:30:35.089Z,3.72
2023-03-02T21:33:06.365Z,3.71
2023-03-02T21:35:36.429Z,3.71
2023-03-02T21:38:07.891Z,3.68
2023-03-02T21:40:46.105Z,3.67
2023-03-02T21:43:18.510Z,3.71
2023-03-02T21:45:48.986Z,3.71
2023-03-02T21:48:22.833Z,3.64
2023-03-02T21:50:53.499Z,3.55
2023-03-02T21:53:24.357Z,3.54
2023-03-02T21:55:58.067Z,3.50
2023-03-02T21:58:28.577Z,3.50
2023-03-02T22:00:59.089Z,3.51
2023-03-02T22:03:29.833Z,3.49
2023-03-02T22:06:00.280Z,3.46
2023-03-02T22:08:31.619Z,3.41
2023-03-02T22:11:05.303Z,3.35
2023-03-02T22:13:37.494Z,3.34
2023-03-02T22:16:17.147Z,3.38
2023-03-02T22:18:50.182Z,3.30
2023-03-02T22:21:30.311Z,3.26
2023-03-02T22:24:23.069Z,3.21
2023-03-02T22:27:01.630Z,3.23
2023-03-02T22:29:36.130Z,3.22
2023-03-02T22:32:18.300Z,3.18
2023-03-02T22:34:52.408Z,3.13
2023-03-02T22:37:24.865Z,3.14
2023-03-02T22:39:59.921Z,3.13
2023-03-02T22:42:34.055Z,3.09
2023-03-02T22:45:15.804Z,3.04
2023-03-02T22:47:51.563Z,3.04
2023-03-02T22:50:25.886Z,3.01
2023-03-02T22:52:58.621Z,2.96
2023-03-02T22:55:42.403Z,2.93
2023-03-02T22:58:34.059Z,2.90
2023-03-02T23:01:05.074Z,2.85
2023-03-02T23:03:44.300Z,2.87
2023-03-02T23:06:32.037Z,2.83
2023-03-02T23:09:05.395Z,2.82
2023-03-02T23:11:41.037Z,2.79
2023-03-02T23:14:26.465Z,2.74
2023-03-02T23:17:01.478Z,2.70
2023-03-02T23:19:34.280Z,2.69
2023-03-02T23:22:04.686Z,2.69
2023-03-02T23:24:35.025Z,2.67
2023-03-02T23:27:06.221Z,2.63
2023-03-02T23:29:42.500Z,2.63
2023-03-02T23:32:13.174Z,2.63
2023-03-02T23:34:44.838Z,2.62
2023-03-02T23:37:15.231Z,2.54
2023-03-02T23:39:46.223Z,2.51
2023-03-02T23:42:16.654Z,2.51
2023-03-02T23:44:49.543Z,2.48
2023-03-02T23:47:19.975Z,2.48
2023-03-02T23:49:50.225Z,2.49
2023-03-02T23:52:20.504Z,2.53
2023-03-02T23:54:51.506Z,2.59
2023-03-02T23:57:21.822Z,2.61
2023-03-02T23:59:54.760Z,2.66
